Airfield :
LOGIN :

Register | Disclaimer

   EN    FR    IT 

 










Legend :    VFR   Marginal VFR   IFR   Intensive IFR   Very Intensive IFR
Visi :
Ceiling :
>= 8 km
>= 3000ft
5 to 8 km
1000 to 3000 ft
1500m to 5 km
500 to 1000 ft
800 to 1500m
200 to 500 ft
< 800m
< 200 ft
Symbols :   Thunderstorms  Fog  Heavy snow  Heavy precipitations  Wind > 20 kt
SIGMETs :     Misc.  Thunderstorms  Icing  Turbulence  Mountain Waves  Volcanic Ashes






- Airport Elevation : 600 ft
- IATA code : VIE


LOWW - Vienna Schwechat

CURRENT METAR :
  • 152020Z 11011KT 7000 FEW009 BKN012 09/08 Q1009 TEMPO SCT010 BKN060

EXPIRED METARs :
  • 151950Z 10010KT 7000 FEW009 BKN012 09/08 Q1010 NOSIG
  • 151920Z 11013KT 6000 FEW010 SCT017 BKN060 09/08 Q1010 NOSIG
  • 151850Z 12012KT 7000 FEW018 BKN060 09/07 Q1009 NOSIG
  • 151820Z 13010KT 7000 FEW007 SCT018 BKN080 09/07 Q1010 NOSIG
  • 151750Z 13012KT 7000 FEW007 SCT009 BKN018 09/07 Q1009 NOSIG

TAF TAF LOWW
Valid from the 15 at 18:00 until the 17 at 00:00 UTC


151715Z 1518/1624 13010KT 7000 BKN010 TX13/1613Z TN09/1518Z
TEMPO 1518/1522 15015KT 9999 SCT015
BECMG 1522/1601 16018KT 9999 FEW015 BKN070
TEMPO 1601/1617 14010KT CAVOK
BECMG 1617/1619 12010KT CAVOK



MET'MAP, your aeronautical weather chart ! - Copyright ORBIFLY December 2007 - Disclaimer

ORBIFLY MET'MAP TEAM :

Programming & Development : Alexandra Zaïnal
Concept & Development : Baudouin d'Aumeries
Co-Development & Prog : Marc-Olivier Méhu
Technical & hardware support : Manuel Goepfert

Contact : metmap@orbifly.com




SOURCES & CREDITS :

   NOAA